createdAt,value
2018-12-11T00:00:52.341Z,0.00
2018-12-11T00:01:52.336Z,0.00
2018-12-11T00:02:52.299Z,0.00
2018-12-11T00:03:52.227Z,0.00
2018-12-11T00:04:52.214Z,0.00
2018-12-11T00:05:52.096Z,0.00
2018-12-11T00:06:52.096Z,0.00
2018-12-11T00:07:51.983Z,0.00
2018-12-11T00:08:51.973Z,0.00
2018-12-11T00:09:51.975Z,0.00
2018-12-11T00:10:51.861Z,0.00
2018-12-11T00:11:51.855Z,0.00
2018-12-11T00:12:51.731Z,0.00
2018-12-11T00:13:51.732Z,0.00
2018-12-11T00:14:51.736Z,0.00
2018-12-11T00:15:51.616Z,0.00
2018-12-11T00:16:51.612Z,0.00
2018-12-11T00:17:51.491Z,0.00
2018-12-11T00:18:51.502Z,0.00
2018-12-11T00:19:51.506Z,0.00
2018-12-11T00:20:51.372Z,0.00
2018-12-11T00:21:51.379Z,0.00
2018-12-11T00:22:51.252Z,0.00
2018-12-11T00:23:51.252Z,0.00
2018-12-11T00:24:51.133Z,0.00
2018-12-11T00:25:51.130Z,0.00
2018-12-11T00:26:51.142Z,0.00
2018-12-11T00:27:51.009Z,0.00
2018-12-11T00:28:51.010Z,0.00
2018-12-11T00:29:50.891Z,0.00
2018-12-11T00:30:50.888Z,0.00
2018-12-11T00:31:50.900Z,0.00
2018-12-11T00:32:50.771Z,0.00
2018-12-11T00:33:50.769Z,0.00
2018-12-11T00:34:50.651Z,0.00
2018-12-11T00:35:50.648Z,0.00
2018-12-11T00:36:50.652Z,0.00
2018-12-11T00:37:50.527Z,0.00
2018-12-11T00:38:50.532Z,0.00
2018-12-11T00:39:50.407Z,0.00
2018-12-11T00:40:50.406Z,0.00
2018-12-11T00:41:50.371Z,0.00
2018-12-11T00:42:50.286Z,0.00
2018-12-11T00:43:50.286Z,0.00
2018-12-11T00:44:50.165Z,0.00
2018-12-11T00:45:50.173Z,0.00
2018-12-11T00:46:50.048Z,0.00
2018-12-11T00:47:50.044Z,0.00
2018-12-11T00:48:50.054Z,0.00
2018-12-11T00:49:49.926Z,0.00
2018-12-11T00:50:49.924Z,0.00
2018-12-11T00:51:49.813Z,0.00
2018-12-11T00:52:49.809Z,0.00
2018-12-11T00:53:49.805Z,0.00
2018-12-11T00:54:49.683Z,0.00
2018-12-11T00:55:49.683Z,0.00
2018-12-11T00:56:49.569Z,0.00
2018-12-11T00:57:49.570Z,0.00
2018-12-11T00:58:49.530Z,0.00
2018-12-11T00:59:49.448Z,0.00
2018-12-11T01:00:49.441Z,0.00
2018-12-11T01:01:49.328Z,0.00
2018-12-11T01:02:49.328Z,0.00
2018-12-11T01:03:49.203Z,0.00
2018-12-11T01:04:49.204Z,0.00
2018-12-11T01:05:49.208Z,0.00
2018-12-11T01:06:49.084Z,0.00
2018-12-11T01:07:49.084Z,0.00
2018-12-11T01:08:48.960Z,0.00
2018-12-11T01:09:48.960Z,0.00
2018-12-11T01:10:48.961Z,0.00
2018-12-11T01:11:48.842Z,0.00
2018-12-11T01:12:48.841Z,0.00
2018-12-11T01:13:48.720Z,0.00
2018-12-11T01:14:48.719Z,0.00
2018-12-11T01:15:48.702Z,0.00
2018-12-11T01:16:48.599Z,0.00
2018-12-11T01:17:48.598Z,0.00
2018-12-11T01:18:48.479Z,0.00
2018-12-11T01:19:48.481Z,0.00
2018-12-11T01:20:48.357Z,0.00
2018-12-11T01:21:48.360Z,0.00
2018-12-11T01:22:48.358Z,0.00
2018-12-11T01:23:48.239Z,0.00
2018-12-11T01:24:48.245Z,0.00
2018-12-11T01:25:48.117Z,0.00
2018-12-11T01:26:48.118Z,0.00
2018-12-11T01:27:48.117Z,0.00
2018-12-11T01:28:47.997Z,0.00
2018-12-11T01:29:47.997Z,0.00
2018-12-11T01:30:47.883Z,0.00
2018-12-11T01:31:47.876Z,0.00
2018-12-11T01:32:47.873Z,0.00
2018-12-11T01:33:47.760Z,0.00
2018-12-11T01:34:47.764Z,0.00
2018-12-11T01:35:47.640Z,0.00
2018-12-11T01:36:47.634Z,0.00
2018-12-11T01:37:47.525Z,0.00
2018-12-11T01:38:47.516Z,0.00
2018-12-11T01:39:47.517Z,0.00
2018-12-11T01:40:47.394Z,0.00
2018-12-11T01:41:47.401Z,0.00
2018-12-11T01:42:47.281Z,0.00
2018-12-11T01:43:47.277Z,0.00
2018-12-11T01:44:47.280Z,0.00
2018-12-11T01:45:47.165Z,0.00
2018-12-11T01:46:47.154Z,0.00
2018-12-11T01:47:47.033Z,0.00
2018-12-11T01:48:47.043Z,0.00
2018-12-11T01:49:47.031Z,0.00
2018-12-11T01:50:46.917Z,0.00
2018-12-11T01:51:46.924Z,0.00
2018-12-11T01:52:46.799Z,0.00
2018-12-11T01:53:46.793Z,0.00
2018-12-11T01:54:46.673Z,0.00
2018-12-11T01:55:46.671Z,0.00
2018-12-11T01:56:46.671Z,0.00
2018-12-11T01:57:46.552Z,0.00
2018-12-11T01:58:46.550Z,0.00
2018-12-11T01:59:46.438Z,0.00
2018-12-11T02:00:46.460Z,0.00
2018-12-11T02:01:46.433Z,0.00
2018-12-11T02:02:46.312Z,0.00
2018-12-11T02:03:46.308Z,0.00
2018-12-11T02:04:46.195Z,0.00
2018-12-11T02:05:46.197Z,0.00
2018-12-11T02:06:46.189Z,0.00
2018-12-11T02:07:46.075Z,0.00
2018-12-11T02:08:46.067Z,0.00
2018-12-11T02:09:45.955Z,0.00
2018-12-11T02:10:45.954Z,0.00
2018-12-11T02:11:45.829Z,0.00
2018-12-11T02:12:45.827Z,0.00
2018-12-11T02:13:45.828Z,0.00
2018-12-11T02:14:45.707Z,0.00
2018-12-11T02:15:45.709Z,0.00
2018-12-11T02:16:45.586Z,0.00
2018-12-11T02:17:45.587Z,0.00
2018-12-11T02:18:45.597Z,0.00
2018-12-11T02:19:45.467Z,0.00
2018-12-11T02:20:45.474Z,0.00
2018-12-11T02:21:45.348Z,0.00
2018-12-11T02:22:45.349Z,0.00
2018-12-11T02:23:45.345Z,0.00
2018-12-11T02:24:45.227Z,0.00
2018-12-11T02:25:45.231Z,0.00
2018-12-11T02:26:45.104Z,0.00
2018-12-11T02:27:45.106Z,0.00
2018-12-11T02:28:45.075Z,0.00
2018-12-11T02:29:44.992Z,0.00
2018-12-11T02:30:44.989Z,0.00
2018-12-11T02:31:44.873Z,0.00
2018-12-11T02:32:44.872Z,0.00
2018-12-11T02:33:44.745Z,0.00
2018-12-11T02:34:44.747Z,0.00
2018-12-11T02:35:44.744Z,0.00
2018-12-11T02:36:44.626Z,0.00
2018-12-11T02:37:44.641Z,0.00
2018-12-11T02:38:44.502Z,0.00
2018-12-11T02:39:44.501Z,0.00
2018-12-11T02:40:44.504Z,0.00
2018-12-11T02:41:44.385Z,0.00
2018-12-11T02:42:44.386Z,0.00
2018-12-11T02:43:44.266Z,0.00
2018-12-11T02:44:44.266Z,0.00
2018-12-11T02:45:44.258Z,0.00
2018-12-11T02:46:44.140Z,0.00
2018-12-11T02:47:44.151Z,0.00
2018-12-11T02:48:44.025Z,0.00
2018-12-11T02:49:44.019Z,0.00
2018-12-11T02:50:43.901Z,0.00
2018-12-11T02:51:43.900Z,0.00
2018-12-11T02:52:43.903Z,0.00
2018-12-11T02:53:43.789Z,0.00
2018-12-11T02:54:43.786Z,0.00
2018-12-11T02:55:43.662Z,0.00
2018-12-11T02:56:43.663Z,0.00
2018-12-11T02:57:43.661Z,0.00
2018-12-11T02:58:43.541Z,0.00
2018-12-11T02:59:43.549Z,0.00
2018-12-11T03:00:43.420Z,0.00
2018-12-11T03:01:43.418Z,0.00
2018-12-11T03:02:43.424Z,0.00
2018-12-11T03:03:43.302Z,0.00
2018-12-11T03:04:43.297Z,0.00
2018-12-11T03:05:43.177Z,0.00
2018-12-11T03:06:43.180Z,0.00
2018-12-11T03:07:43.141Z,0.00
2018-12-11T03:08:43.063Z,0.00
2018-12-11T03:09:43.061Z,0.00
2018-12-11T03:10:42.942Z,0.00
2018-12-11T03:11:42.942Z,0.00
2018-12-11T03:12:42.819Z,0.00
2018-12-11T03:13:42.822Z,0.00
2018-12-11T03:14:42.835Z,0.00
2018-12-11T03:15:42.821Z,0.00
2018-12-11T03:16:42.700Z,0.00
2018-12-11T03:17:42.588Z,0.00
2018-12-11T03:18:42.575Z,0.00
2018-12-11T03:19:42.576Z,0.00
2018-12-11T03:20:42.467Z,0.00
2018-12-11T03:21:42.454Z,0.00
2018-12-11T03:22:42.338Z,0.00
2018-12-11T03:23:42.334Z,0.00
2018-12-11T03:24:42.337Z,0.00
2018-12-11T03:25:42.214Z,0.00
2018-12-11T03:26:42.213Z,0.00
2018-12-11T03:27:42.097Z,0.00
2018-12-11T03:28:42.097Z,0.00
2018-12-11T03:29:41.978Z,0.00
2018-12-11T03:30:42.008Z,0.00
2018-12-11T03:31:41.995Z,0.00
2018-12-11T03:32:41.853Z,0.00
2018-12-11T03:33:41.851Z,0.00
2018-12-11T03:34:41.733Z,0.00
2018-12-11T03:35:41.737Z,0.00
2018-12-11T03:36:41.738Z,0.00
2018-12-11T03:37:41.611Z,0.00
2018-12-11T03:38:41.614Z,0.00
2018-12-11T03:39:41.491Z,0.00
2018-12-11T03:40:41.509Z,0.00
2018-12-11T03:41:41.500Z,0.00
2018-12-11T03:42:41.369Z,0.00
2018-12-11T03:43:41.375Z,0.00
2018-12-11T03:44:41.250Z,0.00
2018-12-11T03:45:41.251Z,0.00
2018-12-11T03:46:41.253Z,0.00
2018-12-11T03:47:41.130Z,0.00
2018-12-11T03:48:41.129Z,0.00
2018-12-11T03:49:41.008Z,0.00
2018-12-11T03:50:41.008Z,0.00
2018-12-11T03:51:40.890Z,0.00
2018-12-11T03:52:40.893Z,0.00
2018-12-11T03:53:40.888Z,0.00
2018-12-11T03:54:40.769Z,0.00
2018-12-11T03:55:40.774Z,0.00
2018-12-11T03:56:40.650Z,0.00
2018-12-11T03:57:40.655Z,0.00
2018-12-11T03:58:40.647Z,0.00
2018-12-11T03:59:40.532Z,0.00
2018-12-11T04:00:40.534Z,0.00
2018-12-11T04:01:40.425Z,0.00
2018-12-11T04:02:40.405Z,0.00
2018-12-11T04:03:40.406Z,0.00
2018-12-11T04:04:40.297Z,0.00
2018-12-11T04:05:40.286Z,0.00
2018-12-11T04:06:40.167Z,0.00
2018-12-11T04:07:40.170Z,0.00
2018-12-11T04:08:40.166Z,0.00
2018-12-11T04:09:40.049Z,0.00
2018-12-11T04:10:40.046Z,0.00
2018-12-11T04:11:39.930Z,0.00
2018-12-11T04:12:39.924Z,0.00
2018-12-11T04:13:39.886Z,0.00
2018-12-11T04:14:39.804Z,0.00
2018-12-11T04:15:39.819Z,0.00
2018-12-11T04:16:39.686Z,0.00
2018-12-11T04:17:39.693Z,0.00
2018-12-11T04:18:39.561Z,0.00
2018-12-11T04:19:39.564Z,0.00
2018-12-11T04:20:39.567Z,0.00
2018-12-11T04:21:39.451Z,0.00
2018-12-11T04:22:39.442Z,0.00
2018-12-11T04:23:39.326Z,0.00
2018-12-11T04:24:39.324Z,0.00
2018-12-11T04:25:39.320Z,0.00
2018-12-11T04:26:39.203Z,0.00
2018-12-11T04:27:39.284Z,0.00
2018-12-11T04:28:39.083Z,0.00
2018-12-11T04:29:39.082Z,0.00
2018-12-11T04:30:39.048Z,0.00
2018-12-11T04:31:38.963Z,0.00
2018-12-11T04:32:38.969Z,0.00
2018-12-11T04:33:38.845Z,0.00
2018-12-11T04:34:38.838Z,0.00
2018-12-11T04:35:38.807Z,0.00
2018-12-11T04:36:38.719Z,0.00
2018-12-11T04:37:38.727Z,0.00
2018-12-11T04:38:38.605Z,0.00
2018-12-11T04:39:38.600Z,0.00
2018-12-11T04:40:38.484Z,0.00
2018-12-11T04:41:38.485Z,0.00
2018-12-11T04:42:38.476Z,0.00
2018-12-11T04:43:38.357Z,0.00
2018-12-11T04:44:38.360Z,0.00
2018-12-11T04:45:38.266Z,0.00
2018-12-11T04:46:38.237Z,0.00
2018-12-11T04:47:38.243Z,0.00
2018-12-11T04:48:38.122Z,0.00
2018-12-11T04:49:38.117Z,0.00
2018-12-11T04:50:37.997Z,0.00
2018-12-11T04:51:37.998Z,0.00
2018-12-11T04:52:37.877Z,0.00
2018-12-11T04:53:37.883Z,0.00
2018-12-11T04:54:37.885Z,0.00
2018-12-11T04:55:37.755Z,0.00
2018-12-11T04:56:37.764Z,0.00
2018-12-11T04:57:37.642Z,0.00
2018-12-11T04:58:37.634Z,0.00
2018-12-11T04:59:37.634Z,0.00
2018-12-11T05:00:37.514Z,0.00
2018-12-11T05:01:37.514Z,0.00
2018-12-11T05:02:37.394Z,0.00
2018-12-11T05:03:37.394Z,0.00
2018-12-11T05:04:37.398Z,0.00
2018-12-11T05:05:37.272Z,0.00
2018-12-11T05:06:37.271Z,0.00
2018-12-11T05:07:37.158Z,0.00
2018-12-11T05:08:37.158Z,0.00
2018-12-11T05:09:37.168Z,0.00
2018-12-11T05:10:37.033Z,0.00
2018-12-11T05:11:37.034Z,0.00
2018-12-11T05:12:36.917Z,0.00
2018-12-11T05:13:36.917Z,0.00
2018-12-11T05:14:36.792Z,0.00
2018-12-11T05:15:36.795Z,0.00
2018-12-11T05:16:36.795Z,0.00
2018-12-11T05:17:36.678Z,0.00
2018-12-11T05:18:36.675Z,0.00
2018-12-11T05:19:36.556Z,0.00
2018-12-11T05:20:36.558Z,0.00
2018-12-11T05:21:36.550Z,0.00
2018-12-11T05:22:36.434Z,0.00
2018-12-11T05:23:36.431Z,0.00
2018-12-11T05:24:36.307Z,0.00
2018-12-11T05:25:36.311Z,0.00
2018-12-11T05:26:36.309Z,0.00
2018-12-11T05:27:36.188Z,0.00
2018-12-11T05:28:36.188Z,0.00
2018-12-11T05:29:36.077Z,0.00
2018-12-11T05:30:36.075Z,0.00
2018-12-11T05:31:36.066Z,0.00
2018-12-11T05:32:35.947Z,0.00
2018-12-11T05:33:35.954Z,0.00
2018-12-11T05:34:35.831Z,0.00
2018-12-11T05:35:35.832Z,0.00
2018-12-11T05:36:35.706Z,0.00
2018-12-11T05:37:35.705Z,0.00
2018-12-11T05:38:35.705Z,0.00
2018-12-11T05:39:35.584Z,0.00
2018-12-11T05:40:35.587Z,0.00
2018-12-11T05:41:35.466Z,0.00
2018-12-11T05:42:35.472Z,0.00
2018-12-11T05:43:35.470Z,0.00
2018-12-11T05:44:35.345Z,0.00
2018-12-11T05:45:35.350Z,0.00
2018-12-11T05:46:35.226Z,0.00
2018-12-11T05:47:35.225Z,0.00
2018-12-11T05:48:35.226Z,0.00
2018-12-11T05:49:35.108Z,0.00
2018-12-11T05:50:35.105Z,0.00
2018-12-11T05:51:34.990Z,0.00
2018-12-11T05:52:34.983Z,0.00
2018-12-11T05:53:34.980Z,0.00
2018-12-11T05:54:34.861Z,0.00
2018-12-11T05:55:34.862Z,0.00
2018-12-11T05:56:34.750Z,0.00
2018-12-11T05:57:34.741Z,0.00
2018-12-11T05:58:34.622Z,0.00
2018-12-11T05:59:34.619Z,0.00
2018-12-11T06:00:34.625Z,0.00
2018-12-11T06:01:34.509Z,0.00
2018-12-11T06:02:34.501Z,0.00
2018-12-11T06:03:34.378Z,0.00
2018-12-11T06:04:34.379Z,0.00
2018-12-11T06:05:34.384Z,0.00
2018-12-11T06:06:34.259Z,0.00
2018-12-11T06:07:34.265Z,0.00
2018-12-11T06:08:34.137Z,0.00
2018-12-11T06:09:34.138Z,0.00
2018-12-11T06:10:34.146Z,0.00
2018-12-11T06:11:34.019Z,0.00
2018-12-11T06:12:34.017Z,0.00
2018-12-11T06:13:33.912Z,0.00
2018-12-11T06:14:33.907Z,0.00
2018-12-11T06:15:33.906Z,0.00
2018-12-11T06:16:33.777Z,0.00
2018-12-11T06:17:33.781Z,0.00
2018-12-11T06:18:33.655Z,0.00
2018-12-11T06:19:33.655Z,0.00
2018-12-11T06:20:34.557Z,0.00
2018-12-11T06:21:33.537Z,0.00
2018-12-11T06:22:33.535Z,0.00
2018-12-11T06:23:33.415Z,0.00
2018-12-11T06:24:33.415Z,0.00
2018-12-11T06:25:33.297Z,0.00
2018-12-11T06:26:33.299Z,0.00
2018-12-11T06:27:33.293Z,0.00
2018-12-11T06:28:33.174Z,0.00
2018-12-11T06:29:33.173Z,0.00
2018-12-11T06:30:33.055Z,0.00
2018-12-11T06:31:33.053Z,0.00
2018-12-11T06:32:33.051Z,0.00
2018-12-11T06:33:32.934Z,0.00
2018-12-11T06:34:32.933Z,0.00
2018-12-11T06:35:32.813Z,0.00
2018-12-11T06:36:32.811Z,0.00
2018-12-11T06:37:32.812Z,0.00
2018-12-11T06:38:32.689Z,0.00
2018-12-11T06:39:32.698Z,0.00
2018-12-11T06:40:32.576Z,0.00
2018-12-11T06:41:32.579Z,0.00
2018-12-11T06:42:32.450Z,0.00
2018-12-11T06:43:32.448Z,0.00
2018-12-11T06:44:32.455Z,0.00
2018-12-11T06:45:32.330Z,0.00
2018-12-11T06:46:32.331Z,0.00
2018-12-11T06:47:32.210Z,0.00
2018-12-11T06:48:32.211Z,0.00
2018-12-11T06:49:32.214Z,0.00
2018-12-11T06:50:32.088Z,0.00
2018-12-11T06:51:32.086Z,0.00
2018-12-11T06:52:31.969Z,0.00
2018-12-11T06:53:31.982Z,0.00
2018-12-11T06:54:31.974Z,0.00
2018-12-11T06:55:31.847Z,0.00
2018-12-11T06:56:31.845Z,4.00
2018-12-11T06:57:31.729Z,4.00
2018-12-11T06:58:31.740Z,0.00
2018-12-11T06:59:31.729Z,0.00
2018-12-11T07:00:31.610Z,4.00
2018-12-11T07:01:31.614Z,4.00
2018-12-11T07:02:31.484Z,4.00
2018-12-11T07:03:31.485Z,4.00
2018-12-11T07:04:31.370Z,4.00
2018-12-11T07:05:31.372Z,8.00
2018-12-11T07:06:31.369Z,8.00
2018-12-11T07:07:31.243Z,8.00
2018-12-11T07:08:31.248Z,8.00
2018-12-11T07:09:31.121Z,12.00
2018-12-11T07:10:31.128Z,12.00
2018-12-11T07:11:31.126Z,16.00
2018-12-11T07:12:31.006Z,16.00
2018-12-11T07:13:31.027Z,20.00
2018-12-11T07:14:30.885Z,24.00
2018-12-11T07:15:30.886Z,24.00
2018-12-11T07:16:30.883Z,28.00
2018-12-11T07:17:30.767Z,32.00
2018-12-11T07:18:30.766Z,36.00
2018-12-11T07:19:30.648Z,40.00
2018-12-11T07:20:30.641Z,44.00
2018-12-11T07:21:30.602Z,48.00
2018-12-11T07:22:30.521Z,56.00
2018-12-11T07:23:30.526Z,56.00
2018-12-11T07:24:30.404Z,64.00
2018-12-11T07:25:30.413Z,68.00
2018-12-11T07:26:30.289Z,76.00
2018-12-11T07:27:30.288Z,84.00
2018-12-11T07:28:30.286Z,92.00
2018-12-11T07:29:30.158Z,96.00
2018-12-11T07:30:30.162Z,104.00
2018-12-11T07:31:30.073Z,104.00
2018-12-11T07:32:30.051Z,104.00
2018-12-11T07:33:30.040Z,100.00
2018-12-11T07:34:29.921Z,100.00
2018-12-11T07:35:29.916Z,100.00
2018-12-11T07:36:29.796Z,96.00
2018-12-11T07:37:29.797Z,92.00
2018-12-11T07:38:29.802Z,84.00
2018-12-11T07:39:29.676Z,88.00
2018-12-11T07:40:29.675Z,96.00
2018-12-11T07:41:29.568Z,96.00
2018-12-11T07:42:29.555Z,104.00
2018-12-11T07:43:29.434Z,116.00
2018-12-11T07:44:29.434Z,128.00
2018-12-11T07:45:29.434Z,132.00
2018-12-11T07:46:29.313Z,140.00
2018-12-11T07:47:29.321Z,152.00
2018-12-11T07:48:29.196Z,164.00
2018-12-11T07:49:29.192Z,172.00
2018-12-11T07:50:29.193Z,188.00
2018-12-11T07:51:29.081Z,208.00
2018-12-11T07:52:29.071Z,228.00
2018-12-11T07:53:28.953Z,240.00
2018-12-11T07:54:28.953Z,256.00
2018-12-11T07:55:28.955Z,268.00
2018-12-11T07:56:28.830Z,276.00
2018-12-11T07:57:28.831Z,288.00
2018-12-11T07:58:28.709Z,304.00
2018-12-11T07:59:28.709Z,320.00
2018-12-11T08:00:28.591Z,332.00
2018-12-11T08:01:28.591Z,352.00
2018-12-11T08:02:28.589Z,372.00
2018-12-11T08:03:28.525Z,392.00
2018-12-11T08:04:28.476Z,408.00
2018-12-11T08:05:28.350Z,412.00
2018-12-11T08:06:28.349Z,416.00
2018-12-11T08:07:28.354Z,420.00
2018-12-11T08:08:28.227Z,428.00
2018-12-11T08:09:28.229Z,440.00
2018-12-11T08:10:28.117Z,456.00
2018-12-11T08:11:28.110Z,476.00
2018-12-11T08:12:28.106Z,480.00
2018-12-11T08:13:27.988Z,484.00
2018-12-11T08:14:27.988Z,492.00
2018-12-11T08:15:27.869Z,496.00
2018-12-11T08:16:27.867Z,504.00
2018-12-11T08:17:27.833Z,512.00
2018-12-11T08:18:27.750Z,524.00
2018-12-11T08:19:27.749Z,532.00
2018-12-11T08:20:27.627Z,544.00
2018-12-11T08:21:27.625Z,552.00
2018-12-11T08:22:27.588Z,564.00
2018-12-11T08:23:27.504Z,576.00
2018-12-11T08:24:27.505Z,588.00
2018-12-11T08:25:27.386Z,600.00
2018-12-11T08:26:27.391Z,608.00
2018-12-11T08:27:27.265Z,620.00
2018-12-11T08:28:27.264Z,628.00
2018-12-11T08:29:27.266Z,644.00
2018-12-11T08:30:27.150Z,664.00
2018-12-11T08:31:27.142Z,672.00
2018-12-11T08:32:27.024Z,684.00
2018-12-11T08:33:27.023Z,692.00
2018-12-11T08:34:27.033Z,700.00
2018-12-11T08:35:26.903Z,708.00
2018-12-11T08:36:26.902Z,708.00
2018-12-11T08:37:26.784Z,712.00
2018-12-11T08:38:26.785Z,712.00
2018-12-11T08:39:27.163Z,716.00
2018-12-11T08:40:26.667Z,720.00
2018-12-11T08:41:26.666Z,728.00
2018-12-11T08:42:26.541Z,736.00
2018-12-11T08:43:26.540Z,736.00
2018-12-11T08:44:26.419Z,752.00
2018-12-11T08:45:26.472Z,768.00
2018-12-11T08:46:26.422Z,772.00
2018-12-11T08:47:26.300Z,776.00
2018-12-11T08:48:26.307Z,792.00
2018-12-11T08:49:26.180Z,792.00
2018-12-11T08:50:26.179Z,800.00
2018-12-11T08:51:26.180Z,808.00
2018-12-11T08:53:13.554Z,820.00
2018-12-11T08:54:13.347Z,828.00
2018-12-11T08:55:13.301Z,832.00
2018-12-11T08:56:13.249Z,804.00
2018-12-11T08:57:13.199Z,828.00
2018-12-11T08:58:13.153Z,836.00
2018-12-11T08:59:13.099Z,836.00
2018-12-11T09:00:13.052Z,792.00
2018-12-11T09:01:13.003Z,788.00
2018-12-11T09:02:12.954Z,784.00
2018-12-11T09:03:12.911Z,788.00
2018-12-11T09:04:12.856Z,796.00
2018-12-11T09:05:12.804Z,844.00
2018-12-11T09:06:12.761Z,904.00
2018-12-11T09:07:12.715Z,916.00
2018-12-11T09:08:12.670Z,920.00
2018-12-11T09:09:12.612Z,940.00
2018-12-11T09:10:12.579Z,948.00
2018-12-11T09:11:12.508Z,960.00
2018-12-11T09:12:12.459Z,904.00
2018-12-11T09:13:12.411Z,940.00
2018-12-11T09:14:12.362Z,952.00
2018-12-11T09:15:12.316Z,956.00
2018-12-11T09:16:12.342Z,852.00
2018-12-11T09:17:12.213Z,772.00
2018-12-11T09:18:12.266Z,932.00
2018-12-11T09:19:12.143Z,1020.00
2018-12-11T09:20:12.138Z,1032.00
2018-12-11T09:21:12.021Z,1040.00
2018-12-11T09:22:12.018Z,1048.00
2018-12-11T09:23:12.027Z,1068.00
2018-12-11T09:24:11.898Z,1092.00
2018-12-11T09:25:11.899Z,1128.00
2018-12-11T09:26:11.778Z,1148.00
2018-12-11T09:27:11.776Z,1116.00
2018-12-11T09:28:11.860Z,1204.00
2018-12-11T09:29:11.659Z,1348.00
2018-12-11T09:30:11.667Z,1508.00
2018-12-11T09:31:11.543Z,1580.00
2018-12-11T09:32:11.544Z,1516.00
2018-12-11T09:33:11.536Z,1516.00
2018-12-11T09:34:11.417Z,1584.00
2018-12-11T09:35:11.415Z,1576.00
2018-12-11T09:36:11.303Z,1564.00
2018-12-11T09:37:11.304Z,1536.00
2018-12-11T09:38:11.259Z,1480.00
2018-12-11T09:39:11.181Z,1508.00
2018-12-11T09:40:11.184Z,1552.00
2018-12-11T09:41:11.057Z,1624.00
2018-12-11T09:42:11.061Z,1728.00
2018-12-11T09:43:10.934Z,1696.00
2018-12-11T09:44:10.933Z,1624.00
2018-12-11T09:45:10.941Z,1560.00
2018-12-11T09:46:10.828Z,1516.00
2018-12-11T09:47:10.815Z,1452.00
2018-12-11T09:48:10.698Z,1424.00
2018-12-11T09:49:10.692Z,1492.00
2018-12-11T09:50:10.699Z,1608.00
2018-12-11T09:51:10.578Z,1636.00
2018-12-11T09:52:10.578Z,1480.00
2018-12-11T09:53:10.452Z,1420.00
2018-12-11T09:54:10.453Z,1392.00
2018-12-11T09:55:10.450Z,1276.00
2018-12-11T09:56:10.331Z,1220.00
2018-12-11T09:57:10.330Z,1216.00
2018-12-11T09:58:10.211Z,1208.00
2018-12-11T09:59:10.212Z,1112.00
2018-12-11T10:00:10.210Z,1108.00
2018-12-11T10:01:10.092Z,1216.00
2018-12-11T10:02:10.100Z,1008.00
2018-12-11T10:03:09.970Z,996.00
2018-12-11T10:04:09.975Z,1016.00
2018-12-11T10:05:09.976Z,1032.00
2018-12-11T10:06:09.848Z,1056.00
2018-12-11T10:07:09.849Z,1112.00
2018-12-11T10:08:09.732Z,1192.00
2018-12-11T10:09:09.734Z,1240.00
2018-12-11T10:10:09.728Z,1268.00
2018-12-11T10:11:09.617Z,1424.00
2018-12-11T10:12:09.608Z,1400.00
2018-12-11T10:13:09.487Z,1368.00
2018-12-11T10:14:09.495Z,1396.00
2018-12-11T10:15:09.489Z,1496.00
2018-12-11T10:16:09.368Z,1612.00
2018-12-11T10:17:09.375Z,1684.00
2018-12-11T10:18:09.246Z,1504.00
2018-12-11T10:19:09.252Z,1688.00
2018-12-11T10:20:09.249Z,1620.00
2018-12-11T10:21:09.133Z,1568.00
2018-12-11T10:22:09.125Z,1540.00
2018-12-11T10:23:09.015Z,1568.00
2018-12-11T10:24:09.013Z,1608.00
2018-12-11T10:25:08.886Z,1560.00
2018-12-11T10:26:08.887Z,1456.00
2018-12-11T10:27:08.884Z,1344.00
2018-12-11T10:28:08.778Z,1276.00
2018-12-11T10:29:08.772Z,1236.00
2018-12-11T10:30:08.645Z,1228.00
2018-12-11T10:31:08.648Z,1212.00
2018-12-11T10:32:08.643Z,1200.00
2018-12-11T10:33:08.530Z,1172.00
2018-12-11T10:34:08.536Z,1132.00
2018-12-11T10:35:08.403Z,1084.00
2018-12-11T10:36:08.410Z,1036.00
2018-12-11T10:37:08.409Z,1028.00
2018-12-11T10:38:08.289Z,1044.00
2018-12-11T10:39:08.281Z,1068.00
2018-12-11T10:40:08.171Z,1084.00
2018-12-11T10:41:08.207Z,1084.00
2018-12-11T10:42:08.161Z,1080.00
2018-12-11T10:43:08.040Z,1080.00
2018-12-11T10:44:08.039Z,1084.00
2018-12-11T10:45:07.921Z,1132.00
2018-12-11T10:46:07.924Z,1308.00
2018-12-11T10:47:07.919Z,1692.00
2018-12-11T10:48:07.799Z,2172.00
2018-12-11T10:49:07.798Z,2104.00
2018-12-11T10:50:07.680Z,2036.00
2018-12-11T10:51:07.678Z,1860.00
2018-12-11T10:52:07.686Z,1804.00
2018-12-11T10:53:07.560Z,1620.00
2018-12-11T10:54:07.562Z,1480.00
2018-12-11T10:55:07.437Z,1380.00
2018-12-11T10:56:07.446Z,1320.00
2018-12-11T10:57:07.438Z,1272.00
2018-12-11T10:58:07.317Z,1524.00
2018-12-11T10:59:07.321Z,1952.00
2018-12-11T11:00:07.196Z,2680.00
2018-12-11T11:01:07.196Z,3504.00
2018-12-11T11:02:07.205Z,4036.00
2018-12-11T11:03:07.075Z,3696.00
2018-12-11T11:04:07.078Z,2736.00
2018-12-11T11:05:06.955Z,2056.00
2018-12-11T11:06:06.955Z,1764.00
2018-12-11T11:07:06.966Z,1492.00
2018-12-11T11:08:06.834Z,1272.00
2018-12-11T11:09:06.834Z,1216.00
2018-12-11T11:10:06.730Z,1216.00
2018-12-11T11:11:06.715Z,1204.00
2018-12-11T11:12:06.717Z,1188.00
2018-12-11T11:13:06.598Z,1164.00
2018-12-11T11:14:06.595Z,1152.00
2018-12-11T11:15:06.474Z,1148.00
2018-12-11T11:16:06.473Z,1120.00
2018-12-11T11:17:06.481Z,1096.00
2018-12-11T11:18:06.360Z,1100.00
2018-12-11T11:19:06.359Z,1132.00
2018-12-11T11:20:06.231Z,1172.00
2018-12-11T11:21:06.231Z,1196.00
2018-12-11T11:22:06.233Z,1192.00
2018-12-11T11:23:06.112Z,1212.00
2018-12-11T11:24:06.122Z,1276.00
2018-12-11T11:25:05.999Z,1368.00
2018-12-11T11:26:05.996Z,1556.00
2018-12-11T11:27:05.990Z,1776.00
2018-12-11T11:28:05.880Z,2072.00
2018-12-11T11:29:05.875Z,2308.00
2018-12-11T11:30:05.749Z,2380.00
2018-12-11T11:31:05.752Z,2460.00
2018-12-11T11:32:05.750Z,2408.00
2018-12-11T11:33:05.637Z,2296.00
2018-12-11T11:34:05.633Z,2120.00
2018-12-11T11:35:05.512Z,2004.00
2018-12-11T11:36:05.508Z,1960.00
2018-12-11T11:37:05.516Z,2004.00
2018-12-11T11:38:05.387Z,2052.00
2018-12-11T11:39:05.387Z,2028.00
2018-12-11T11:40:05.275Z,2008.00
2018-12-11T11:41:05.275Z,1988.00
2018-12-11T11:42:05.275Z,1936.00
2018-12-11T11:43:05.156Z,1880.00
2018-12-11T11:44:05.154Z,1788.00
2018-12-11T11:45:05.039Z,1752.00
2018-12-11T11:46:05.030Z,1740.00
2018-12-11T11:47:05.025Z,1732.00
2018-12-11T11:48:04.908Z,1804.00
2018-12-11T11:49:04.919Z,1924.00
2018-12-11T11:50:04.785Z,2020.00
2018-12-11T11:51:04.783Z,2076.00
2018-12-11T11:52:04.785Z,2136.00
2018-12-11T11:53:04.666Z,2128.00
2018-12-11T11:54:04.665Z,2080.00
2018-12-11T11:55:04.544Z,2056.00
2018-12-11T11:56:04.547Z,1984.00
2018-12-11T11:57:04.545Z,1892.00
2018-12-11T11:58:04.423Z,1916.00
2018-12-11T11:59:04.433Z,1900.00
2018-12-11T12:00:04.303Z,1920.00
2018-12-11T12:01:04.309Z,2032.00
2018-12-11T12:02:04.307Z,2108.00
2018-12-11T12:03:04.183Z,2140.00
2018-12-11T12:04:04.187Z,2164.00
2018-12-11T12:05:04.061Z,2156.00
2018-12-11T12:06:04.062Z,2128.00
2018-12-11T12:07:04.063Z,2036.00
2018-12-11T12:08:03.941Z,2012.00
2018-12-11T12:09:03.942Z,2036.00
2018-12-11T12:10:03.826Z,2036.00
2018-12-11T12:11:03.819Z,2072.00
2018-12-11T12:12:03.822Z,2088.00
2018-12-11T12:13:03.704Z,2248.00
2018-12-11T12:14:03.704Z,2356.00
2018-12-11T12:15:03.580Z,2476.00
2018-12-11T12:16:03.581Z,2608.00
2018-12-11T12:17:03.579Z,2744.00
2018-12-11T12:18:03.458Z,2784.00
2018-12-11T12:19:03.463Z,2804.00
2018-12-11T12:20:03.346Z,2712.00
2018-12-11T12:21:03.340Z,2528.00
2018-12-11T12:22:03.345Z,2468.00
2018-12-11T12:23:03.229Z,2328.00
2018-12-11T12:24:03.217Z,2172.00
2018-12-11T12:25:03.105Z,1976.00
2018-12-11T12:26:03.096Z,1856.00
2018-12-11T12:27:03.105Z,1656.00
2018-12-11T12:28:02.984Z,1492.00
2018-12-11T12:29:02.981Z,1404.00
2018-12-11T12:30:02.972Z,1536.00
2018-12-11T12:31:02.855Z,1704.00
2018-12-11T12:32:02.859Z,1956.00
2018-12-11T12:33:02.745Z,2188.00
2018-12-11T12:34:02.736Z,2356.00
2018-12-11T12:35:02.736Z,2448.00
2018-12-11T12:36:02.617Z,2624.00
2018-12-11T12:37:02.626Z,2812.00
2018-12-11T12:38:02.496Z,2944.00
2018-12-11T12:39:02.499Z,2964.00
2018-12-11T12:40:02.494Z,3004.00
2018-12-11T12:41:02.375Z,2976.00
2018-12-11T12:42:02.376Z,2968.00
2018-12-11T12:43:02.253Z,2944.00
2018-12-11T12:44:02.259Z,2924.00
2018-12-11T12:45:02.259Z,2836.00
2018-12-11T12:46:02.132Z,2756.00
2018-12-11T12:47:02.133Z,2588.00
2018-12-11T12:48:02.024Z,2536.00
2018-12-11T12:49:02.014Z,2480.00
2018-12-11T12:50:02.014Z,2472.00